Monterey Peninsula Airport
KMRY : rendu visible

Aérodrome :











RETROUVEZ-NOUS SUR...

 
LOGIN :

S'inscrire | Disclaimer

   EN    FR    IT 

 









Légende :    VFR   VFR Marginal   IFR   IFR Intensif   IFR Très Intensif
Visi : 
Plafond : 
>= 8 km
>= 3000ft
5 à 8 km
1000 à 3000 ft
1500m à 5 km
500 à 1000 ft
800 à 1500m
200 à 500 ft
< 800m
< 200 ft
Symboles :   Orages  Brouillard  Fortes neiges  Fortes précipitations  Vent > 20 kt






- Altitude de l'aérodrome : 257 ft
- Code IATA : MRY


KMRY - Monterey Peninsula

DERNIER METAR :
  • 171254Z AUTO 13004KT 10SM CLR 10/06 A3006 RMK AO2 SLP190 T01000056 $

METARs EXPIRÉS :
  • 171154Z AUTO 00000KT 10SM CLR 09/07 A3007 RMK AO2 SLP196 T00940067 10111 20089 56007 $
  • 171054Z AUTO 12005KT 10SM CLR 09/07 A3008 RMK AO2 SLP196 T00940067 $

TAF KMRY
Valide du 17 à 12h jusqu'au 18 à 12h UTC


171121Z 1712/1812 12005KT P6SM SKC
TEMPO 1712/1716 1/2SM FG VV002
FM171730 29004KT P6SM FEW008
FM172100 30006KT P6SM SKC
FM180300 VRB03KT P6SM SKC



MET'MAP, la Météo Aéronautique d'un coup d'oeil ! - Copyright ORBIFLY Décembre 2007 - Disclaimer

ORBIFLY MET'MAP TEAM :

Programmation & Développement : Alexandra Zaïnal
Conception & Développement : Baudouin d'Aumeries
Co-Programmation & Développement : Marc-Olivier Méhu
Soutien technique & logistique : Manuel Goepfert

Contact : metmap@orbifly.com




SOURCES & CREDITS :

   NOAA       Earth
Advisory